Time;durP1;ratioP1;P1;durP2;ratioP2;P2;SDS_P1;SDS_P2;PMS_P1;PMS_P2;Temp;Humidity;BMP_temperature;BMP_pressure;BME280_temperature;BME280_humidity;BME280_pressure;Samples;Min_cycle;Max_cycle;Signal;HPM_P1;HPM_P2
2021/03/18 00:01:57;;;;;;;6.97;2.33;;;6.50;90.90;;;;;;5032371;28;20170;-81
2021/03/18 00:04:22;;;;;;;9.97;3.37;;;6.60;90.50;;;;;;5032528;28;20631;-82
2021/03/18 00:06:48;;;;;;;9.93;2.53;;;6.60;89.50;;;;;;5035734;28;20228;-78
2021/03/18 00:09:18;;;;;;;8.23;2.70;;;6.70;89.10;;;;;;5035689;28;20251;-82
2021/03/18 00:11:45;;;;;;;8.97;2.57;;;6.70;87.60;;;;;;5035799;28;20184;-82
2021/03/18 00:14:13;;;;;;;8.53;3.40;;;6.60;87.70;;;;;;5035350;28;20649;-82
2021/03/18 00:16:39;;;;;;;9.47;2.87;;;6.60;88.10;;;;;;5035564;28;20177;-79
2021/03/18 00:19:06;;;;;;;8.87;2.27;;;6.60;88.90;;;;;;5035443;28;20535;-79
2021/03/18 00:21:31;;;;;;;8.90;2.13;;;6.60;89.30;;;;;;5036110;28;20257;-77
2021/03/18 00:23:57;;;;;;;8.83;2.60;;;6.60;88.50;;;;;;5035546;28;20243;-83
2021/03/18 00:26:29;;;;;;;14.17;3.33;;;6.60;89.50;;;;;;5035617;28;20174;-78
2021/03/18 00:28:55;;;;;;;10.10;3.03;;;6.60;89.20;;;;;;5035032;28;20173;-79
2021/03/18 00:31:23;;;;;;;10.53;3.07;;;6.70;89.00;;;;;;5034886;28;20630;-79
2021/03/18 00:33:49;;;;;;;8.40;2.43;;;6.70;88.00;;;;;;5033840;28;20606;-78
2021/03/18 00:36:15;;;;;;;8.77;2.57;;;6.60;88.70;;;;;;5035173;28;20261;-77
2021/03/18 00:38:41;;;;;;;8.50;2.67;;;6.60;88.10;;;;;;5035352;28;20205;-78
2021/03/18 00:41:09;;;;;;;9.53;2.60;;;6.60;89.00;;;;;;5035094;28;20174;-79
2021/03/18 00:43:35;;;;;;;8.63;2.50;;;6.60;87.80;;;;;;5035325;28;20206;-76
2021/03/18 00:46:02;;;;;;;7.20;2.30;;;6.60;87.60;;;;;;5033987;28;20201;-83
2021/03/18 00:48:29;;;;;;;7.80;2.27;;;6.50;87.50;;;;;;5035404;28;20169;-79
2021/03/18 00:50:58;;;;;;;10.13;2.67;;;6.50;88.20;;;;;;5035034;28;20201;-78
2021/03/18 00:53:36;;;;;;;10.03;3.13;;;6.50;87.90;;;;;;5035245;28;20170;-81
2021/03/18 00:56:12;;;;;;;8.47;2.27;;;6.50;87.00;;;;;;5035332;28;20181;-78
2021/03/18 00:58:39;;;;;;;9.03;3.10;;;6.50;86.70;;;;;;5035127;28;20207;-78
2021/03/18 01:01:06;;;;;;;6.97;2.13;;;6.40;87.00;;;;;;5035313;28;20176;-78
2021/03/18 01:03:34;;;;;;;8.80;2.33;;;6.40;87.80;;;;;;5035009;28;20173;-78
2021/03/18 01:06:03;;;;;;;12.20;3.20;;;6.40;86.80;;;;;;5035036;28;20248;-82
2021/03/18 01:08:29;;;;;;;11.30;3.20;;;6.40;87.30;;;;;;5035059;28;20201;-77
2021/03/18 01:11:03;;;;;;;11.47;2.77;;;6.30;86.80;;;;;;5034477;28;20193;-83
2021/03/18 01:13:29;;;;;;;7.67;2.80;;;6.30;85.40;;;;;;5034952;28;20684;-78
2021/03/18 01:15:57;;;;;;;9.03;2.93;;;6.30;87.20;;;;;;5033722;28;20201;-78
2021/03/18 01:18:29;;;;;;;8.10;3.10;;;6.30;85.50;;;;;;5034351;28;20697;-81
2021/03/18 01:20:55;;;;;;;6.67;2.33;;;6.30;85.80;;;;;;5033234;28;20227;-78
2021/03/18 01:23:21;;;;;;;9.07;2.70;;;6.20;85.70;;;;;;5034917;28;20169;-81
2021/03/18 01:25:46;;;;;;;7.67;2.43;;;6.20;86.70;;;;;;5034607;28;20212;-83
2021/03/18 01:28:12;;;;;;;8.57;2.60;;;6.10;86.50;;;;;;5034447;28;20201;-79
2021/03/18 01:30:40;;;;;;;6.73;3.00;;;6.20;88.30;;;;;;5034598;28;20205;-77
2021/03/18 01:33:07;;;;;;;9.50;3.37;;;6.00;88.00;;;;;;5034819;28;20530;-83
2021/03/18 01:35:34;;;;;;;10.90;4.60;;;5.90;88.50;;;;;;5036930;28;20162;-79
2021/03/18 01:38:00;;;;;;;11.17;4.00;;;5.80;90.00;;;;;;5034914;28;20712;-80
2021/03/18 01:40:29;;;;;;;8.87;3.80;;;5.80;90.30;;;;;;5038972;28;20169;-80
2021/03/18 01:42:55;;;;;;;7.80;3.80;;;5.70;90.70;;;;;;5037188;28;20717;-83
2021/03/18 01:45:22;;;;;;;8.37;3.53;;;5.70;90.60;;;;;;5034325;28;20189;-81
2021/03/18 01:47:50;;;;;;;7.23;3.17;;;5.60;88.10;;;;;;5034266;28;20196;-82
2021/03/18 01:50:17;;;;;;;9.37;3.83;;;5.50;88.10;;;;;;5034112;28;20229;-85
2021/03/18 01:52:44;;;;;;;12.30;3.67;;;5.50;88.80;;;;;;5034141;28;20173;-82
2021/03/18 01:55:17;;;;;;;6.83;2.60;;;5.40;87.80;;;;;;5034036;28;20181;-81
2021/03/18 01:57:43;;;;;;;8.43;3.10;;;5.40;87.50;;;;;;5033741;28;20201;-83
2021/03/18 02:00:10;;;;;;;8.10;3.00;;;5.40;88.10;;;;;;5034203;28;20169;-83
2021/03/18 02:02:37;;;;;;;9.13;2.60;;;5.40;88.50;;;;;;5034036;28;20569;-84
2021/03/18 02:05:04;;;;;;;6.87;2.80;;;5.40;87.80;;;;;;5034138;28;20187;-81
2021/03/18 02:07:29;;;;;;;9.13;3.03;;;5.40;87.90;;;;;;5033970;28;20192;-77
2021/03/18 02:09:55;;;;;;;7.97;3.53;;;5.40;87.80;;;;;;5033544;28;20201;-80
2021/03/18 02:12:21;;;;;;;7.37;2.73;;;5.40;88.20;;;;;;5032426;28;20680;-81
2021/03/18 02:14:47;;;;;;;8.67;3.40;;;5.40;87.60;;;;;;5033863;28;20653;-81
2021/03/18 02:17:22;;;;;;;9.93;2.77;;;5.40;88.20;;;;;;5033298;28;20198;-81
2021/03/18 02:20:09;;;;;;;9.07;3.07;;;5.30;87.50;;;;;;5033702;28;20279;-81
2021/03/18 02:22:44;;;;;;;7.47;2.40;;;5.30;88.40;;;;;;5033511;28;20189;-82
2021/03/18 02:25:09;;;;;;;7.87;2.53;;;5.30;89.00;;;;;;5033222;28;20251;-81
2021/03/18 02:28:00;;;;;;;6.47;3.13;;;5.20;89.30;;;;;;5033194;28;20204;-77
2021/03/18 02:30:56;;;;;;;5.70;3.10;;;5.20;89.40;;;;;;5033413;28;20172;-79
2021/03/18 02:33:52;;;;;;;8.23;2.30;;;5.20;90.10;;;;;;5033461;28;20692;-83
2021/03/18 02:36:26;;;;;;;9.23;2.90;;;5.20;88.20;;;;;;5033194;28;20204;-81
2021/03/18 02:39:02;;;;;;;6.93;2.37;;;5.20;88.00;;;;;;5032934;28;20292;-80
2021/03/18 02:41:37;;;;;;;9.20;2.40;;;5.10;90.10;;;;;;5032964;28;20533;-79
2021/03/18 02:44:17;;;;;;;8.73;2.60;;;5.20;89.60;;;;;;5033205;28;20261;-77
2021/03/18 02:46:43;;;;;;;6.80;3.00;;;5.10;90.00;;;;;;5032866;28;20204;-79
2021/03/18 02:49:11;;;;;;;6.17;2.33;;;5.10;89.80;;;;;;5033237;28;20174;-78
2021/03/18 02:51:39;;;;;;;9.83;2.70;;;5.10;90.10;;;;;;5033207;28;20258;-79
2021/03/18 02:54:10;;;;;;;7.70;3.00;;;5.10;90.60;;;;;;5032860;28;20170;-79
2021/03/18 02:56:40;;;;;;;9.53;2.93;;;5.10;90.70;;;;;;5027774;28;20185;-76
2021/03/18 02:59:09;;;;;;;9.73;3.47;;;5.10;90.40;;;;;;5031323;28;20181;-76
2021/03/18 03:01:35;;;;;;;9.90;2.60;;;5.10;90.50;;;;;;5033010;28;20197;-79
2021/03/18 03:04:01;;;;;;;7.40;3.10;;;5.10;90.40;;;;;;5032901;28;20176;-80
2021/03/18 03:06:29;;;;;;;9.43;2.50;;;5.20;90.30;;;;;;5032729;28;20228;-79
2021/03/18 03:08:55;;;;;;;8.37;2.43;;;5.20;89.70;;;;;;5032738;28;20162;-78
2021/03/18 03:11:23;;;;;;;8.37;2.73;;;5.20;89.30;;;;;;5032788;28;20180;-79
2021/03/18 03:13:50;;;;;;;10.17;3.60;;;5.20;89.80;;;;;;5032806;28;20176;-77
2021/03/18 03:16:19;;;;;;;7.20;1.93;;;5.30;90.40;;;;;;5031476;28;20220;-78
2021/03/18 03:18:46;;;;;;;10.50;2.27;;;5.20;91.00;;;;;;5031474;28;20237;-78
2021/03/18 03:21:14;;;;;;;7.17;2.03;;;5.10;91.10;;;;;;5032864;28;20176;-76
2021/03/18 03:23:43;;;;;;;15.70;2.87;;;5.00;91.50;;;;;;5032769;28;20165;-77
2021/03/18 03:26:09;;;;;;;9.23;2.53;;;5.00;91.90;;;;;;5032824;28;20248;-82
2021/03/18 03:28:36;;;;;;;10.50;2.30;;;5.00;91.80;;;;;;5032795;28;20169;-76
2021/03/18 03:31:02;;;;;;;9.67;2.40;;;5.10;92.00;;;;;;5032696;28;20174;-77
2021/03/18 03:33:28;;;;;;;9.23;3.03;;;5.20;91.80;;;;;;5032669;28;20184;-83
2021/03/18 03:35:55;;;;;;;10.23;3.23;;;5.20;91.60;;;;;;5032539;28;20170;-81
2021/03/18 03:38:21;;;;;;;11.67;3.40;;;5.20;91.50;;;;;;5032463;28;20347;-78
2021/03/18 03:40:47;;;;;;;9.97;3.27;;;5.10;91.90;;;;;;5035438;28;20205;-77
2021/03/18 03:43:14;;;;;;;11.23;3.40;;;5.10;92.10;;;;;;5036313;28;20181;-77
2021/03/18 03:45:40;;;;;;;9.53;3.33;;;5.10;92.10;;;;;;5035136;28;20181;-79
2021/03/18 03:48:06;;;;;;;10.43;3.47;;;5.20;92.20;;;;;;5036193;28;20604;-78
2021/03/18 03:50:32;;;;;;;10.00;3.30;;;5.30;92.00;;;;;;5034728;28;20586;-78
2021/03/18 03:53:26;;;;;;;10.67;3.10;;;5.30;92.00;;;;;;5036080;28;20173;-77
2021/03/18 03:56:12;;;;;;;8.43;2.80;;;5.30;91.70;;;;;;5034951;28;20184;-77
2021/03/18 03:59:01;;;;;;;11.23;3.27;;;5.40;90.70;;;;;;5036192;28;20216;-77
2021/03/18 04:01:39;;;;;;;8.97;3.50;;;5.40;91.10;;;;;;5036188;28;20555;-76
2021/03/18 04:04:12;;;;;;;9.60;2.90;;;5.50;91.00;;;;;;5035926;28;20173;-80
2021/03/18 04:06:39;;;;;;;11.20;4.03;;;5.60;90.40;;;;;;5035826;28;20288;-76
2021/03/18 04:09:07;;;;;;;9.07;3.30;;;5.70;90.00;;;;;;5035991;28;20177;-79
2021/03/18 04:11:37;;;;;;;9.37;2.93;;;5.80;89.30;;;;;;5034891;28;20177;-76
2021/03/18 04:14:13;;;;;;;12.37;3.70;;;5.80;87.70;;;;;;5035796;28;20555;-77
2021/03/18 04:16:42;;;;;;;12.10;3.80;;;6.00;86.30;;;;;;5034675;28;20209;-76
2021/03/18 04:19:14;;;;;;;11.50;3.27;;;6.00;85.30;;;;;;5035933;28;20568;-82
2021/03/18 04:21:41;;;;;;;9.73;2.63;;;5.90;85.00;;;;;;5035681;28;20513;-81
2021/03/18 04:24:10;;;;;;;11.40;3.70;;;5.90;86.40;;;;;;5034494;28;20213;-82
2021/03/18 04:26:38;;;;;;;11.53;3.13;;;5.60;89.10;;;;;;5035840;28;20245;-79
2021/03/18 04:29:06;;;;;;;13.30;3.27;;;5.50;88.80;;;;;;5035749;28;20170;-81
2021/03/18 04:31:35;;;;;;;12.17;3.50;;;5.50;90.30;;;;;;5034524;28;20660;-81
2021/03/18 04:34:01;;;;;;;10.60;3.33;;;5.50;90.50;;;;;;5035163;28;20174;-77
2021/03/18 04:36:37;;;;;;;6.17;2.97;;;5.40;90.70;;;;;;5035814;28;20174;-84
2021/03/18 04:39:05;;;;;;;10.73;3.57;;;5.30;91.10;;;;;;5036267;28;20185;-78
2021/03/18 04:41:31;;;;;;;12.47;4.00;;;5.40;91.80;;;;;;5034325;28;20177;-79
2021/03/18 04:43:57;;;;;;;8.77;3.00;;;5.30;91.90;;;;;;5035545;28;20181;-80
2021/03/18 04:46:25;;;;;;;8.63;3.23;;;5.20;92.40;;;;;;5035136;28;20185;-80
2021/03/18 04:48:53;;;;;;;11.37;3.80;;;5.30;92.60;;;;;;5035176;28;20188;-77
2021/03/18 04:51:19;;;;;;;10.60;3.10;;;5.30;92.10;;;;;;5034827;28;20185;-76
2021/03/18 04:53:44;;;;;;;15.07;3.60;;;5.20;92.10;;;;;;5034075;28;20264;-77
2021/03/18 04:56:10;;;;;;;9.70;3.07;;;5.20;92.20;;;;;;5034883;28;20660;-78
2021/03/18 04:58:39;;;;;;;11.37;3.37;;;5.20;92.70;;;;;;5035129;28;20679;-77
2021/03/18 05:01:06;;;;;;;10.50;3.10;;;5.20;91.80;;;;;;5034640;28;20172;-77
2021/03/18 05:03:33;;;;;;;10.53;3.07;;;5.30;90.50;;;;;;5034804;28;20264;-80
2021/03/18 05:06:00;;;;;;;11.10;2.93;;;5.40;90.10;;;;;;5033664;28;20515;-80
2021/03/18 05:08:28;;;;;;;12.57;3.60;;;5.40;88.10;;;;;;5033613;28;20638;-83
2021/03/18 05:10:55;;;;;;;7.27;2.87;;;5.40;87.10;;;;;;5034706;28;20170;-82
2021/03/18 05:13:21;;;;;;;6.77;2.43;;;5.30;89.00;;;;;;5033585;28;20185;-84
2021/03/18 05:15:50;;;;;;;14.30;3.70;;;5.40;88.50;;;;;;5034753;28;20591;-79
2021/03/18 05:18:16;;;;;;;12.37;2.70;;;5.40;88.90;;;;;;5033134;28;20217;-81
2021/03/18 05:20:44;;;;;;;12.63;2.50;;;5.40;89.20;;;;;;5035468;28;20205;-79
2021/03/18 05:23:12;;;;;;;13.30;3.53;;;5.30;85.80;;;;;;5036495;28;20182;-81
2021/03/18 05:25:38;;;;;;;15.23;3.37;;;5.30;89.30;;;;;;5036982;28;20193;-82
2021/03/18 05:28:04;;;;;;;14.60;3.37;;;5.30;90.10;;;;;;5034718;28;20212;-80
2021/03/18 05:30:31;;;;;;;5.83;2.23;;;5.40;87.10;;;;;;5034408;28;20682;-82
2021/03/18 05:32:59;;;;;;;7.27;2.50;;;5.30;75.60;;;;;;5034078;28;20185;-76
2021/03/18 05:35:25;;;;;;;6.53;2.00;;;5.10;63.10;;;;;;5034313;28;20220;-76
2021/03/18 05:37:52;;;;;;;3.63;1.10;;;5.10;56.40;;;;;;5034139;28;20263;-78
2021/03/18 05:40:18;;;;;;;3.90;1.40;;;5.00;54.60;;;;;;5033993;28;20170;-78
2021/03/18 05:42:44;;;;;;;3.93;1.50;;;5.00;56.20;;;;;;5034263;28;20209;-77
2021/03/18 05:45:12;;;;;;;5.23;1.93;;;5.10;57.40;;;;;;5034083;28;20180;-78
2021/03/18 05:47:38;;;;;;;5.30;1.80;;;5.10;59.60;;;;;;5033533;28;20194;-77
2021/03/18 05:50:07;;;;;;;5.70;1.60;;;5.10;58.90;;;;;;5033652;28;20174;-76
2021/03/18 05:52:34;;;;;;;2.90;1.33;;;5.10;57.00;;;;;;5032399;28;20177;-77
2021/03/18 05:55:00;;;;;;;4.00;1.30;;;5.00;57.00;;;;;;5033935;28;20167;-80
2021/03/18 05:57:26;;;;;;;6.40;1.63;;;5.00;60.80;;;;;;5033459;28;20204;-77
2021/03/18 05:59:53;;;;;;;7.13;1.80;;;4.90;59.10;;;;;;5032602;28;20177;-78
2021/03/18 06:02:19;;;;;;;5.53;1.97;;;4.90;60.30;;;;;;5032723;28;20188;-78
2021/03/18 06:04:45;;;;;;;4.50;1.53;;;5.00;57.60;;;;;;5032560;28;20296;-77
2021/03/18 06:07:12;;;;;;;5.70;2.00;;;5.10;57.60;;;;;;5033554;28;20257;-76
2021/03/18 06:09:37;;;;;;;6.43;2.00;;;5.00;57.80;;;;;;5033669;28;20177;-78
2021/03/18 06:12:07;;;;;;;8.83;2.30;;;5.30;56.40;;;;;;5033717;28;20262;-83
2021/03/18 06:14:32;;;;;;;8.93;2.20;;;5.30;56.20;;;;;;5033124;28;20190;-80
2021/03/18 06:16:58;;;;;;;6.80;2.40;;;5.30;57.60;;;;;;5033629;28;20205;-79
2021/03/18 06:19:24;;;;;;;8.53;2.13;;;5.40;56.10;;;;;;5033536;28;20200;-82
2021/03/18 06:21:58;;;;;;;8.23;2.23;;;5.30;54.50;;;;;;5033364;28;20641;-82
2021/03/18 06:24:26;;;;;;;4.83;1.80;;;5.40;56.70;;;;;;5033138;28;20185;-80
2021/03/18 06:26:55;;;;;;;5.83;2.30;;;5.40;54.50;;;;;;5032778;28;20606;-80
2021/03/18 06:29:32;;;;;;;5.17;1.83;;;5.60;55.60;;;;;;5032778;28;20169;-77
2021/03/18 06:32:14;;;;;;;6.63;2.00;;;5.70;56.90;;;;;;5031668;28;20176;-76
2021/03/18 06:34:46;;;;;;;8.70;1.77;;;5.80;52.10;;;;;;5033084;28;20197;-76
2021/03/18 06:37:31;;;;;;;6.47;2.00;;;6.00;47.00;;;;;;5032763;28;20205;-79
2021/03/18 06:40:05;;;;;;;8.67;2.80;;;6.10;44.10;;;;;;5033027;28;20161;-83
2021/03/18 06:42:32;;;;;;;9.13;2.23;;;6.20;45.00;;;;;;5032919;28;20576;-77
2021/03/18 06:45:04;;;;;;;7.90;2.07;;;6.20;46.10;;;;;;5032556;28;20169;-81
2021/03/18 06:47:42;;;;;;;8.60;3.03;;;6.10;46.70;;;;;;5032233;28;20197;-77
2021/03/18 06:50:08;;;;;;;7.07;2.30;;;6.10;49.40;;;;;;5032729;28;20185;-77
2021/03/18 06:52:41;;;;;;;6.40;2.20;;;6.20;49.80;;;;;;5032464;28;20204;-78
2021/03/18 06:55:10;;;;;;;13.00;2.57;;;6.40;48.50;;;;;;5032701;28;20712;-80
2021/03/18 06:57:36;;;;;;;8.50;2.53;;;6.60;45.40;;;;;;5032327;28;20205;-76
2021/03/18 07:00:06;;;;;;;9.27;2.83;;;6.80;43.10;;;;;;5032188;28;20548;-82
2021/03/18 07:02:39;;;;;;;14.50;3.37;;;6.80;41.40;;;;;;5033038;28;20634;-80
2021/03/18 07:05:16;;;;;;;5.87;2.80;;;7.00;41.30;;;;;;5032655;28;20192;-78
2021/03/18 07:07:42;;;;;;;8.90;2.67;;;7.00;39.10;;;;;;5033807;28;20226;-76
2021/03/18 07:10:08;;;;;;;15.40;4.00;;;7.20;37.50;;;;;;5034647;28;20269;-81
2021/03/18 07:12:34;;;;;;;15.07;4.80;;;7.20;34.30;;;;;;5034413;28;20247;-78
2021/03/18 07:15:01;;;;;;;7.90;3.10;;;7.20;37.30;;;;;;5033236;28;20182;-80
2021/03/18 07:17:34;;;;;;;6.27;2.33;;;7.20;31.90;;;;;;5035083;28;20691;-80
2021/03/18 07:20:15;;;;;;;8.60;3.00;;;7.20;31.90;;;;;;5035936;28;20177;-77
2021/03/18 07:22:43;;;;;;;9.17;2.90;;;7.30;30.10;;;;;;5035467;28;20173;-78
2021/03/18 07:25:11;;;;;;;9.40;3.43;;;7.30;32.20;;;;;;5035666;28;20216;-78
2021/03/18 07:27:49;;;;;;;9.13;3.47;;;7.20;36.10;;;;;;5034394;28;20592;-79
2021/03/18 07:30:31;;;;;;;10.80;3.60;;;7.30;37.60;;;;;;5034849;28;20191;-79
2021/03/18 07:32:58;;;;;;;11.73;3.83;;;7.20;37.80;;;;;;5036406;28;20165;-80
2021/03/18 07:35:25;;;;;;;6.33;3.30;;;7.10;40.60;;;;;;5036124;28;20170;-79
2021/03/18 07:37:52;;;;;;;9.27;3.47;;;7.10;40.10;;;;;;5035855;28;20213;-79
2021/03/18 07:40:18;;;;;;;9.77;3.83;;;7.20;40.10;;;;;;5035360;28;20200;-81
2021/03/18 07:42:46;;;;;;;9.80;4.33;;;7.30;39.00;;;;;;5028734;28;20177;-82
2021/03/18 07:45:12;;;;;;;9.27;3.30;;;7.40;37.90;;;;;;5033863;28;20181;-84
2021/03/18 07:47:41;;;;;;;12.13;3.10;;;7.40;39.70;;;;;;5035489;28;20193;-81
2021/03/18 07:50:09;;;;;;;9.77;3.40;;;7.40;39.50;;;;;;5034418;28;20173;-82
2021/03/18 07:52:37;;;;;;;11.27;3.43;;;7.50;40.80;;;;;;5036191;28;20523;-81
2021/03/18 07:55:04;;;;;;;12.87;3.80;;;7.60;30.30;;;;;;5042967;28;20169;-82
2021/03/18 07:57:43;;;;;;;9.83;3.63;;;7.60;29.50;;;;;;5033007;28;20236;-87
2021/03/18 08:00:15;;;;;;;13.27;4.80;;;7.70;32.10;;;;;;5042693;28;20161;-86
2021/03/18 08:02:41;;;;;;;16.87;4.30;;;7.70;34.20;;;;;;5048405;28;20265;-89
2021/03/18 08:05:08;;;;;;;9.33;4.07;;;7.60;38.10;;;;;;5037916;28;20194;-80
2021/03/18 08:07:48;;;;;;;10.37;3.90;;;7.60;41.90;;;;;;5040934;28;20307;-84
2021/03/18 08:10:23;;;;;;;33.87;6.30;;;7.70;39.70;;;;;;5036105;28;20177;-84
2021/03/18 08:12:55;;;;;;;14.87;4.23;;;7.80;37.80;;;;;;5036568;28;20177;-92
2021/03/18 08:15:43;;;;;;;14.37;5.00;;;7.70;40.30;;;;;;5044331;28;20161;-76
2021/03/18 08:18:20;;;;;;;9.00;3.63;;;7.70;43.50;;;;;;5057223;28;20188;-83
2021/03/18 08:20:49;;;;;;;13.40;4.40;;;7.80;43.00;;;;;;5059613;28;20161;-77
2021/03/18 08:23:30;;;;;;;12.00;5.30;;;7.80;40.40;;;;;;5059220;28;20183;-84
2021/03/18 08:26:03;;;;;;;14.17;5.70;;;7.70;42.50;;;;;;5058791;28;20238;-77
2021/03/18 08:28:46;;;;;;;16.53;5.40;;;7.80;43.70;;;;;;5060731;28;20168;-81
2021/03/18 08:31:19;;;;;;;18.43;5.40;;;7.90;39.50;;;;;;5060684;28;20179;-85
2021/03/18 08:33:55;;;;;;;10.53;5.13;;;8.00;37.50;;;;;;5059592;28;20169;-88
2021/03/18 08:36:34;;;;;;;11.57;4.60;;;7.70;40.00;;;;;;5058267;28;20172;-79
2021/03/18 08:39:12;;;;;;;15.63;5.57;;;7.60;43.20;;;;;;5051296;28;20228;-86
2021/03/18 08:41:40;;;;;;;14.70;5.00;;;7.70;42.40;;;;;;5037308;28;20344;-87
2021/03/18 08:44:21;;;;;;;10.43;5.13;;;7.60;46.20;;;;;;5036271;28;20656;-86
2021/03/18 08:46:57;;;;;;;14.10;5.33;;;7.50;47.10;;;;;;5035589;28;20185;-82
2021/03/18 08:49:33;;;;;;;10.47;4.90;;;7.50;53.10;;;;;;5037696;28;20233;-88
2021/03/18 08:52:01;;;;;;;13.50;5.73;;;7.40;53.10;;;;;;5038040;28;20216;-85
2021/03/18 08:54:37;;;;;;;10.07;4.97;;;7.60;52.00;;;;;;5037028;28;20201;-82
2021/03/18 08:57:09;;;;;;;9.67;4.37;;;7.70;46.70;;;;;;5034643;28;20237;-80
2021/03/18 08:59:37;;;;;;;14.53;5.27;;;7.60;44.50;;;;;;5034894;28;20189;-81
2021/03/18 09:02:08;;;;;;;9.13;4.07;;;7.70;43.70;;;;;;5034548;28;20623;-82
2021/03/18 09:04:41;;;;;;;10.70;3.97;;;7.70;45.30;;;;;;5033385;28;20173;-77
2021/03/18 09:07:10;;;;;;;10.00;3.73;;;7.70;43.90;;;;;;5034496;28;20166;-88
2021/03/18 09:09:37;;;;;;;14.40;4.90;;;7.70;41.70;;;;;;5034970;28;20168;-81
2021/03/18 09:12:04;;;;;;;10.33;4.53;;;7.80;40.20;;;;;;5034288;28;20170;-83
2021/03/18 09:14:30;;;;;;;12.33;4.77;;;8.00;36.70;;;;;;5033093;28;20177;-79
2021/03/18 09:17:23;;;;;;;11.40;4.73;;;8.00;36.60;;;;;;5034128;28;20591;-86
2021/03/18 09:19:48;;;;;;;11.63;5.47;;;8.00;40.80;;;;;;5033579;28;20185;-86
2021/03/18 09:22:16;;;;;;;10.70;5.30;;;8.00;42.30;;;;;;5034329;28;20541;-77
2021/03/18 09:24:45;;;;;;;12.60;5.77;;;7.90;42.00;;;;;;5033187;28;20628;-86
2021/03/18 09:27:13;;;;;;;12.83;5.73;;;7.70;46.10;;;;;;5033322;28;20174;-84
2021/03/18 09:29:40;;;;;;;11.93;5.83;;;7.80;48.90;;;;;;5032842;28;20486;-80
2021/03/18 09:32:11;;;;;;;7.93;5.63;;;7.80;47.00;;;;;;5034453;28;20158;-83
2021/03/18 09:34:39;;;;;;;14.37;6.47;;;7.50;49.00;;;;;;5033703;28;20267;-82
2021/03/18 09:37:06;;;;;;;14.50;6.10;;;7.60;52.30;;;;;;5033101;28;20201;-83
2021/03/18 09:39:32;;;;;;;13.63;5.97;;;7.50;53.90;;;;;;5032893;28;20249;-80
2021/03/18 09:42:02;;;;;;;17.97;6.43;;;7.30;59.50;;;;;;5034365;28;20174;-81
2021/03/18 09:44:30;;;;;;;16.00;6.90;;;7.40;61.00;;;;;;5034244;28;20223;-82
2021/03/18 09:46:57;;;;;;;14.93;6.83;;;7.50;59.70;;;;;;5035146;28;20193;-83
2021/03/18 09:49:27;;;;;;;15.77;7.57;;;7.60;57.80;;;;;;5035223;28;20173;-84
2021/03/18 09:51:53;;;;;;;20.23;7.67;;;7.50;60.10;;;;;;5034498;28;20641;-83
2021/03/18 09:54:25;;;;;;;19.50;8.27;;;7.70;57.90;;;;;;5035482;28;20180;-82
2021/03/18 09:56:52;;;;;;;13.30;6.77;;;7.70;60.00;;;;;;5035576;28;20688;-88
2021/03/18 09:59:21;;;;;;;13.20;7.43;;;7.50;64.50;;;;;;5035211;28;20506;-81
2021/03/18 10:01:48;;;;;;;11.73;6.50;;;7.60;66.00;;;;;;5033659;28;20169;-87
2021/03/18 10:04:16;;;;;;;14.40;7.73;;;7.70;64.20;;;;;;5033366;28;20307;-82
2021/03/18 10:06:49;;;;;;;15.63;8.00;;;7.80;64.70;;;;;;5042808;28;20260;-87
2021/03/18 10:09:25;;;;;;;16.80;7.83;;;8.00;61.10;;;;;;5054836;28;20173;-91
2021/03/18 10:11:53;;;;;;;15.87;7.87;;;8.10;58.50;;;;;;5053381;28;20173;-79
2021/03/18 10:14:19;;;;;;;20.40;8.33;;;8.00;59.00;;;;;;5040488;28;20242;-89
2021/03/18 10:16:49;;;;;;;18.37;8.73;;;8.10;59.50;;;;;;5033873;28;20185;-82
2021/03/18 10:19:15;;;;;;;20.47;7.43;;;8.10;59.60;;;;;;5034647;28;20228;-85
2021/03/18 10:21:43;;;;;;;21.33;7.57;;;8.20;59.80;;;;;;5034169;28;20630;-78
2021/03/18 10:24:11;;;;;;;15.77;7.83;;;8.10;58.40;;;;;;5033510;28;20196;-80
2021/03/18 10:26:37;;;;;;;21.20;8.80;;;8.10;61.10;;;;;;5033930;28;20174;-84
2021/03/18 10:29:05;;;;;;;19.60;8.80;;;8.10;63.60;;;;;;5033563;28;20631;-82
2021/03/18 10:31:31;;;;;;;24.63;9.20;;;8.20;64.40;;;;;;5033975;28;20197;-85
2021/03/18 10:33:58;;;;;;;22.33;8.97;;;8.30;62.60;;;;;;5033351;28;20166;-79
2021/03/18 10:36:37;;;;;;;26.87;9.50;;;8.50;61.20;;;;;;5031934;28;20587;-82
2021/03/18 10:39:09;;;;;;;20.20;9.20;;;8.60;59.90;;;;;;5032708;28;20255;-83
2021/03/18 10:41:49;;;;;;;17.83;8.20;;;8.70;56.90;;;;;;5032947;28;20178;-83
2021/03/18 10:44:16;;;;;;;22.47;8.13;;;8.50;57.10;;;;;;5033283;28;20239;-82
2021/03/18 10:46:42;;;;;;;20.47;8.17;;;8.50;58.20;;;;;;5032613;28;20649;-82
2021/03/18 10:49:11;;;;;;;16.43;7.50;;;8.50;58.20;;;;;;5032248;28;20196;-80
2021/03/18 10:51:43;;;;;;;25.70;7.90;;;8.50;57.30;;;;;;5032162;28;20193;-78
2021/03/18 10:54:22;;;;;;;22.60;9.67;;;8.50;58.80;;;;;;5035015;28;20244;-80
2021/03/18 10:56:52;;;;;;;17.97;8.03;;;8.60;59.40;;;;;;5036463;28;20197;-85
2021/03/18 10:59:19;;;;;;;20.40;7.23;;;8.60;63.00;;;;;;5035160;28;20185;-78
2021/03/18 11:01:46;;;;;;;17.70;9.07;;;8.80;60.80;;;;;;5034597;28;20188;-84
2021/03/18 11:04:12;;;;;;;30.60;10.93;;;9.00;59.40;;;;;;5032763;28;20165;-86
2021/03/18 11:06:49;;;;;;;21.47;7.50;;;9.10;58.60;;;;;;5033648;28;20166;-81
2021/03/18 11:09:16;;;;;;;21.27;8.27;;;8.70;55.00;;;;;;5036711;28;20231;-89
2021/03/18 11:12:00;;;;;;;26.57;9.00;;;8.80;56.10;;;;;;5031069;28;20201;-87
2021/03/18 11:14:28;;;;;;;20.80;8.13;;;8.80;57.70;;;;;;5032693;28;20209;-85
2021/03/18 11:17:05;;;;;;;19.30;7.90;;;8.80;57.70;;;;;;5032461;28;20562;-88
2021/03/18 11:19:30;;;;;;;20.37;8.30;;;8.80;58.00;;;;;;5035632;28;20633;-85
2021/03/18 11:22:04;;;;;;;23.03;8.97;;;8.70;58.10;;;;;;5033928;28;20254;-87
2021/03/18 11:24:31;;;;;;;20.53;9.07;;;8.60;61.40;;;;;;5032483;28;20170;-87
2021/03/18 11:26:59;;;;;;;28.47;10.23;;;8.60;63.10;;;;;;5032983;28;20193;-79
2021/03/18 11:29:34;;;;;;;19.20;9.93;;;8.60;64.70;;;;;;5030884;28;20264;-80
2021/03/18 11:32:02;;;;;;;20.67;8.53;;;8.70;68.50;;;;;;5032013;28;20173;-84
2021/03/18 11:34:31;;;;;;;16.17;9.20;;;8.60;65.30;;;;;;5032226;28;20180;-78
2021/03/18 11:37:12;;;;;;;22.43;10.00;;;8.70;65.70;;;;;;5031856;28;20268;-79
2021/03/18 11:39:39;;;;;;;20.23;10.17;;;8.20;74.10;;;;;;5031655;28;20194;-83
2021/03/18 11:42:04;;;;;;;21.63;10.27;;;8.20;76.20;;;;;;5030780;28;20203;-88
2021/03/18 11:44:32;;;;;;;23.57;9.67;;;8.10;78.70;;;;;;5032451;28;20228;-80
2021/03/18 11:47:08;;;;;;;21.77;9.70;;;8.00;79.50;;;;;;5031831;28;20190;-79
2021/03/18 11:49:35;;;;;;;23.83;10.00;;;7.90;79.80;;;;;;5032393;28;20208;-78
2021/03/18 11:52:02;;;;;;;27.53;11.03;;;8.00;80.90;;;;;;5033618;28;20185;-86
2021/03/18 11:54:27;;;;;;;23.43;11.00;;;8.10;78.50;;;;;;5032737;28;20220;-82
2021/03/18 11:56:53;;;;;;;20.90;9.57;;;8.30;76.30;;;;;;5032267;28;20682;-88
2021/03/18 11:59:18;;;;;;;18.53;8.77;;;8.40;74.50;;;;;;5032339;28;20205;-81
2021/03/18 12:01:46;;;;;;;22.30;8.63;;;8.20;73.70;;;;;;5035091;28;20177;-83
2021/03/18 12:04:12;;;;;;;21.47;8.90;;;8.40;72.80;;;;;;5038222;28;20162;-82
2021/03/18 12:06:37;;;;;;;21.37;8.17;;;8.50;69.70;;;;;;5043237;28;20177;-80
2021/03/18 12:09:04;;;;;;;25.80;8.00;;;8.50;67.10;;;;;;5054612;28;20199;-80
2021/03/18 12:11:29;;;;;;;25.50;9.43;;;8.50;69.70;;;;;;5055941;28;20264;-83
2021/03/18 12:13:55;;;;;;;17.10;8.00;;;8.50;70.00;;;;;;5049069;28;20193;-90
2021/03/18 12:16:20;;;;;;;15.93;6.90;;;8.60;62.50;;;;;;5037817;28;20189;-83
2021/03/18 12:18:46;;;;;;;17.30;7.63;;;8.50;59.70;;;;;;5037178;28;20312;-84
2021/03/18 12:21:12;;;;;;;16.53;6.60;;;8.50;61.10;;;;;;5037123;28;20169;-83
2021/03/18 12:23:38;;;;;;;19.10;6.47;;;8.40;62.50;;;;;;5037318;28;20209;-79
2021/03/18 12:26:04;;;;;;;17.80;6.70;;;8.50;63.50;;;;;;5037498;28;20224;-81
2021/03/18 12:28:29;;;;;;;20.07;7.00;;;8.70;61.70;;;;;;5036922;28;20177;-84
2021/03/18 12:30:55;;;;;;;21.20;7.90;;;8.90;59.30;;;;;;5038214;28;20185;-90
2021/03/18 12:33:21;;;;;;;18.50;8.27;;;9.00;59.30;;;;;;5036627;28;20252;-80
2021/03/18 12:35:48;;;;;;;20.77;7.37;;;9.10;57.10;;;;;;5035676;28;20646;-91
2021/03/18 12:38:14;;;;;;;22.23;7.73;;;9.10;57.60;;;;;;5034686;28;20209;-84
2021/03/18 12:40:40;;;;;;;17.03;8.20;;;9.20;56.80;;;;;;5035661;28;20228;-88
2021/03/18 12:43:06;;;;;;;16.80;8.47;;;9.30;56.20;;;;;;5035613;28;20181;-82
2021/03/18 12:45:32;;;;;;;19.23;8.13;;;9.20;53.10;;;;;;5038338;28;20181;-82
2021/03/18 12:47:59;;;;;;;17.93;8.50;;;9.20;52.40;;;;;;5035783;28;20170;-87
2021/03/18 12:50:26;;;;;;;17.43;8.77;;;9.20;53.40;;;;;;5036376;28;20700;-88
2021/03/18 12:52:52;;;;;;;20.77;9.60;;;9.10;56.30;;;;;;5035265;28;20247;-85
2021/03/18 12:55:18;;;;;;;20.87;10.33;;;9.10;57.60;;;;;;5034202;28;20312;-83
2021/03/18 12:57:47;;;;;;;22.10;9.43;;;9.00;59.30;;;;;;5033271;28;20316;-79
2021/03/18 13:00:18;;;;;;;20.83;9.33;;;9.00;59.10;;;;;;5032784;28;20177;-83
2021/03/18 13:02:43;;;;;;;21.30;9.50;;;8.80;62.10;;;;;;5032689;28;20265;-82